Time;durP1;ratioP1;P1;durP2;ratioP2;P2;SDS_P1;SDS_P2;PMS_P1;PMS_P2;Temp;Humidity;BMP_temperature;BMP_pressure;BME280_temperature;BME280_humidity;BME280_pressure;Samples;Min_cycle;Max_cycle;Signal;HPM_P1;HPM_P2
2024/01/02 00:01:05;;;;;;;11.20;8.75;;;;;;;9.05;98.69;97970.25;5028995;28;20261;-58
2024/01/02 00:03:30;;;;;;;7.95;6.32;;;;;;;8.90;98.26;97940.31;5028880;28;20237;-57
2024/01/02 00:05:56;;;;;;;11.20;7.63;;;;;;;8.66;98.45;97896.44;5028971;28;20324;-57
2024/01/02 00:08:21;;;;;;;10.07;7.40;;;;;;;9.08;98.39;97965.69;5045091;28;20209;-58
2024/01/02 00:10:47;;;;;;;12.10;7.63;;;;;;;8.86;98.85;97918.28;5051219;28;20660;-57
2024/01/02 00:13:12;;;;;;;8.00;6.97;;;;;;;9.07;98.33;97951.13;5051294;28;20219;-58
2024/01/02 00:15:38;;;;;;;9.43;6.22;;;;;;;8.77;98.38;97882.78;5050845;28;20375;-57
2024/01/02 00:18:03;;;;;;;7.28;6.55;;;;;;;8.68;97.85;97879.09;5051196;28;20180;-58
2024/01/02 00:20:29;;;;;;;5.78;5.18;;;;;;;9.11;96.71;97931.94;5051359;28;20197;-58
2024/01/02 00:22:54;;;;;;;4.45;4.05;;;;;;;9.22;96.07;97944.91;5051464;28;20174;-58
2024/01/02 00:25:20;;;;;;;4.93;3.45;;;;;;;8.76;94.42;97865.66;5051058;28;20198;-58
2024/01/02 00:27:45;;;;;;;3.78;3.30;;;;;;;8.81;93.94;97866.19;5051068;28;20239;-59
2024/01/02 00:30:12;;;;;;;4.25;3.35;;;;;;;9.06;92.95;97904.78;5051117;28;20174;-58
2024/01/02 00:32:37;;;;;;;3.40;3.10;;;;;;;9.09;92.57;97907.19;5051007;28;20339;-58
2024/01/02 00:35:03;;;;;;;4.05;3.63;;;;;;;9.32;91.94;97938.16;5050735;28;20182;-58
2024/01/02 00:37:29;;;;;;;4.25;3.85;;;;;;;9.36;91.78;97944.75;5050995;28;20178;-58
2024/01/02 00:39:54;;;;;;;4.10;3.80;;;;;;;9.28;91.52;97931.59;5050917;28;20182;-58
2024/01/02 00:42:20;;;;;;;4.40;4.03;;;;;;;9.35;91.76;97950.84;5050906;28;20274;-57
2024/01/02 00:44:46;;;;;;;5.57;4.18;;;;;;;9.32;91.34;97930.41;5050852;28;20205;-57
2024/01/02 00:47:12;;;;;;;4.93;4.43;;;;;;;8.83;91.19;97848.81;5050543;28;20660;-57
2024/01/02 00:49:38;;;;;;;6.18;5.13;;;;;;;9.27;91.22;97926.53;5052775;28;20177;-57
2024/01/02 00:52:04;;;;;;;8.02;5.35;;;;;;;9.28;91.34;97928.16;5054688;28;20687;-57
2024/01/02 00:54:29;;;;;;;5.53;4.90;;;;;;;8.77;91.64;97860.41;5054627;28;20173;-57
2024/01/02 00:56:55;;;;;;;5.85;5.25;;;;;;;8.66;92.09;97841.44;5054533;28;20747;-58
2024/01/02 00:59:20;;;;;;;6.35;5.75;;;;;;;9.14;92.38;97918.00;5054165;28;20182;-57
2024/01/02 01:01:46;;;;;;;8.23;6.32;;;;;;;9.07;92.24;97922.75;5054426;28;20197;-57
2024/01/02 01:04:11;;;;;;;7.57;5.97;;;;;;;9.09;92.32;97915.72;5054327;28;20704;-57
2024/01/02 01:06:37;;;;;;;9.40;6.18;;;;;;;9.00;92.50;97900.91;5054357;28;20182;-57
2024/01/02 01:09:02;;;;;;;7.97;5.80;;;;;;;8.56;93.40;97832.72;5054315;28;20185;-57
2024/01/02 01:11:28;;;;;;;5.60;5.10;;;;;;;8.77;93.26;97875.06;5054253;28;20192;-57
2024/01/02 01:13:53;;;;;;;7.93;5.20;;;;;;;8.31;93.33;97818.13;5054303;28;20178;-57
2024/01/02 01:16:18;;;;;;;7.55;6.43;;;;;;;8.86;92.42;97897.63;5054189;28;20710;-57
2024/01/02 01:18:44;;;;;;;11.57;6.68;;;;;;;8.86;93.26;97916.50;5054105;28;20726;-57
2024/01/02 01:21:10;;;;;;;9.05;7.63;;;;;;;8.43;94.08;97860.25;5054072;28;20193;-57
2024/01/02 01:23:36;;;;;;;10.05;8.15;;;;;;;8.67;94.74;97900.66;5053950;28;20684;-57
2024/01/02 01:26:01;;;;;;;8.07;6.78;;;;;;;8.72;95.19;97911.50;5054024;28;20236;-57
2024/01/02 01:28:27;;;;;;;9.07;6.68;;;;;;;8.70;95.13;97900.47;5053699;28;20224;-57
2024/01/02 01:30:53;;;;;;;8.32;7.07;;;;;;;8.68;95.58;97884.25;5053950;28;20174;-57
2024/01/02 01:33:19;;;;;;;9.68;7.03;;;;;;;8.92;95.47;97928.97;5053766;28;20185;-57
2024/01/02 01:35:44;;;;;;;8.77;7.25;;;;;;;8.66;95.52;97873.22;5054114;28;20256;-57
2024/01/02 01:38:10;;;;;;;10.52;7.35;;;;;;;8.35;95.52;97819.56;5053772;28;20170;-57
2024/01/02 01:40:35;;;;;;;5.28;4.68;;;;;;;8.80;93.39;97878.25;5053773;28;20205;-57
2024/01/02 01:43:01;;;;;;;6.20;4.85;;;;;;;9.05;91.62;97898.00;5053717;28;20210;-57
2024/01/02 01:45:26;;;;;;;4.97;4.00;;;;;;;8.96;93.11;97878.00;5053618;28;20697;-57
2024/01/02 01:47:52;;;;;;;3.80;3.50;;;;;;;8.93;93.13;97858.41;5053554;28;20563;-57
2024/01/02 01:50:18;;;;;;;4.10;3.75;;;;;;;8.68;93.15;97827.50;5053526;28;20196;-57
2024/01/02 01:52:43;;;;;;;5.18;4.50;;;;;;;8.53;93.08;97805.41;5053346;28;20184;-57
2024/01/02 01:55:10;;;;;;;6.40;4.70;;;;;;;9.10;93.42;97895.91;5053502;28;20181;-57
2024/01/02 01:57:36;;;;;;;9.07;7.20;;;;;;;8.60;93.65;97814.34;5053135;28;20185;-57
2024/01/02 02:00:04;;;;;;;16.98;9.93;;;;;;;8.65;93.96;97817.44;5053012;28;20695;-57
2024/01/02 02:02:31;;;;;;;21.90;14.30;;;;;;;9.17;94.89;97892.78;5053154;28;20174;-57
2024/01/02 02:04:58;;;;;;;21.88;14.68;;;;;;;8.82;95.59;97842.88;5053260;28;20212;-57
2024/01/02 02:07:23;;;;;;;21.98;15.50;;;;;;;8.72;96.84;97843.59;5052979;28;20596;-58
2024/01/02 02:09:48;;;;;;;22.80;15.98;;;;;;;8.63;97.65;97827.00;5053239;28;20256;-57
2024/01/02 02:12:14;;;;;;;27.80;17.83;;;;;;;8.31;98.60;97782.03;5053148;28;20174;-57
2024/01/02 02:14:40;;;;;;;26.90;18.77;;;;;;;8.34;99.67;97811.94;5052789;28;20498;-57
2024/01/02 02:17:06;;;;;;;33.78;21.85;;;;;;;8.16;100.00;97782.25;5053300;28;20181;-57
2024/01/02 02:19:31;;;;;;;33.97;23.30;;;;;;;8.68;100.00;97897.16;5052896;28;20332;-57
2024/01/02 02:21:59;;;;;;;32.80;24.50;;;;;;;8.47;100.00;97901.22;5053195;28;20209;-57
2024/01/02 02:24:24;;;;;;;37.40;26.02;;;;;;;8.06;100.00;97841.31;5052879;28;20288;-57
2024/01/02 02:26:51;;;;;;;42.28;25.77;;;;;;;8.16;100.00;97855.19;5052846;28;20253;-57
2024/01/02 02:29:17;;;;;;;39.28;26.05;;;;;;;8.13;100.00;97850.28;5052866;28;20178;-57
2024/01/02 02:31:42;;;;;;;41.00;25.50;;;;;;;7.96;100.00;97822.25;5052529;28;20174;-57
2024/01/02 02:34:07;;;;;;;35.22;23.65;;;;;;;8.06;100.00;97818.13;5052679;28;20268;-56
2024/01/02 02:36:33;;;;;;;31.02;22.50;;;;;;;8.22;100.00;97854.81;5052721;28;20181;-57
2024/01/02 02:38:58;;;;;;;33.13;22.00;;;;;;;7.80;100.00;97777.84;5052603;28;20545;-57
2024/01/02 02:41:23;;;;;;;31.58;20.92;;;;;;;8.00;100.00;97803.09;5052593;28;20609;-56
2024/01/02 02:43:49;;;;;;;28.00;19.00;;;;;;;8.07;100.00;97809.47;5052542;28;20352;-57
2024/01/02 02:46:16;;;;;;;24.27;16.17;;;;;;;8.20;100.00;97823.19;5052264;28;20181;-57
2024/01/02 02:48:42;;;;;;;18.60;14.13;;;;;;;8.47;100.00;97856.56;5052142;28;20174;-57
2024/01/02 02:51:07;;;;;;;17.15;11.57;;;;;;;8.25;100.00;97828.84;5052407;28;20176;-56
2024/01/02 02:53:32;;;;;;;9.48;7.60;;;;;;;8.27;100.00;97821.84;5052025;28;20181;-57
2024/01/02 02:55:58;;;;;;;13.75;10.18;;;;;;;7.98;100.00;97779.16;5052319;28;20219;-57
2024/01/02 02:58:23;;;;;;;11.52;9.38;;;;;;;8.04;100.00;97783.91;5052250;28;20174;-57
2024/01/02 03:00:49;;;;;;;9.73;7.63;;;;;;;8.56;100.00;97859.31;5052206;28;20173;-57
2024/01/02 03:03:14;;;;;;;11.23;7.78;;;;;;;8.33;100.00;97823.97;5052080;28;20174;-57
2024/01/02 03:05:40;;;;;;;11.02;7.15;;;;;;;8.40;100.00;97843.25;5051877;28;20174;-57
2024/01/02 03:08:05;;;;;;;27.73;19.65;;;;;;;8.80;100.00;97914.34;5052117;28;20251;-57
2024/01/02 03:10:31;;;;;;;31.15;21.33;;;;;;;8.79;100.00;97923.03;5052293;28;20178;-56
2024/01/02 03:12:57;;;;;;;24.42;18.27;;;;;;;8.67;100.00;97910.97;5052083;28;20273;-57
2024/01/02 03:15:23;;;;;;;28.77;18.35;;;;;;;8.09;100.00;97835.94;5051876;28;20186;-57
2024/01/02 03:17:48;;;;;;;31.13;19.90;;;;;;;8.50;100.00;97911.28;5051884;28;20177;-57
2024/01/02 03:20:14;;;;;;;29.85;19.65;;;;;;;7.77;100.00;97834.72;5051500;28;20212;-57
2024/01/02 03:22:39;;;;;;;30.17;20.90;;;;;;;8.28;100.00;97921.41;5051862;28;20216;-56
2024/01/02 03:25:08;;;;;;;35.80;22.20;;;;;;;7.92;100.00;97856.84;5051743;28;20202;-57
2024/01/02 03:27:33;;;;;;;46.65;29.05;;;;;;;7.67;100.00;97815.63;5051744;28;20208;-57
2024/01/02 03:29:58;;;;;;;35.15;22.77;;;;;;;7.64;100.00;97813.25;5051678;28;20169;-57
2024/01/02 03:32:24;;;;;;;34.30;22.42;;;;;;;7.63;100.00;97814.19;5051644;28;20548;-57
2024/01/02 03:34:51;;;;;;;37.15;22.75;;;;;;;8.19;100.00;97914.28;5049009;28;20190;-57
2024/01/02 03:37:16;;;;;;;28.13;18.77;;;;;;;7.95;100.00;97858.41;5049114;28;20193;-57
2024/01/02 03:39:42;;;;;;;25.85;17.50;;;;;;;8.34;100.00;97920.19;5049135;28;20280;-57
2024/01/02 03:42:07;;;;;;;23.98;16.88;;;;;;;8.27;100.00;97898.34;5049104;28;20177;-57
2024/01/02 03:44:33;;;;;;;23.85;17.83;;;;;;;8.19;100.00;97880.78;5048910;28;20287;-57
2024/01/02 03:46:59;;;;;;;18.98;14.27;;;;;;;8.25;100.00;97875.25;5049310;28;20186;-57
2024/01/02 03:49:25;;;;;;;19.50;13.95;;;;;;;8.28;100.00;97874.22;5049012;28;20332;-57
2024/01/02 03:51:51;;;;;;;18.30;12.43;;;;;;;8.31;100.00;97889.44;5048962;28;20181;-57
2024/01/02 03:54:17;;;;;;;18.52;12.55;;;;;;;7.86;100.00;97816.06;5048986;28;20200;-57
2024/01/02 03:56:43;;;;;;;15.68;11.48;;;;;;;7.36;100.00;97713.09;5048909;28;20186;-57
2024/01/02 03:59:09;;;;;;;18.00;12.25;;;;;;;7.89;100.00;97791.84;5048813;28;20184;-57
2024/01/02 04:01:44;;;;;;;25.85;15.73;;;;;;;8.03;100.00;97789.97;5048805;28;20186;-57
2024/01/02 04:04:09;;;;;;;23.10;14.88;;;;;;;8.06;100.00;97789.78;5009077;28;20730;-57
2024/01/02 04:06:35;;;;;;;17.52;11.80;;;;;;;8.56;100.00;97876.56;5025406;28;20313;-58
2024/01/02 04:09:00;;;;;;;14.75;10.60;;;;;;;8.01;100.00;97789.28;5028934;28;20260;-58
2024/01/02 04:11:26;;;;;;;11.70;6.63;;;;;;;8.21;100.00;97817.09;5029155;28;20241;-58
2024/01/02 04:13:51;;;;;;;6.85;5.50;;;;;;;8.41;100.00;97844.91;5028825;28;20206;-58
2024/01/02 04:16:16;;;;;;;3.97;3.53;;;;;;;8.20;100.00;97806.88;5028835;28;20731;-58
2024/01/02 04:18:44;;;;;;;4.85;3.20;;;;;;;8.59;97.71;97861.69;5028848;28;20186;-58
2024/01/02 04:21:10;;;;;;;3.40;3.10;;;;;;;8.69;96.24;97878.16;5028640;28;20198;-58
2024/01/02 04:23:35;;;;;;;3.75;3.17;;;;;;;8.66;95.67;97872.38;5029232;28;20245;-58
2024/01/02 04:26:00;;;;;;;3.45;3.10;;;;;;;8.73;94.58;97874.44;5032894;28;20190;-58
2024/01/02 04:28:26;;;;;;;3.25;3.00;;;;;;;8.14;93.55;97784.91;5032743;28;20174;-59
2024/01/02 04:30:52;;;;;;;4.22;3.03;;;;;;;8.25;93.72;97792.78;5032666;28;20241;-58
2024/01/02 04:33:17;;;;;;;2.78;2.58;;;;;;;8.87;93.82;97879.47;5032606;28;20191;-57
2024/01/02 04:35:42;;;;;;;2.80;2.60;;;;;;;8.25;94.32;97791.94;5048854;28;20197;-57
2024/01/02 04:38:08;;;;;;;3.60;2.90;;;;;;;8.84;93.33;97884.84;5054896;28;20181;-57
2024/01/02 04:40:33;;;;;;;3.08;2.88;;;;;;;8.63;93.61;97847.63;5054909;28;20181;-57
2024/01/02 04:42:59;;;;;;;3.95;3.55;;;;;;;8.52;93.12;97823.53;5054811;28;20174;-57
2024/01/02 04:45:24;;;;;;;3.35;2.60;;;;;;;8.58;91.59;97818.78;5054707;28;20208;-57
2024/01/02 04:47:49;;;;;;;3.83;2.78;;;;;;;9.00;91.51;97869.94;5054757;28;20281;-58
2024/01/02 04:50:15;;;;;;;4.03;2.60;;;;;;;8.64;90.98;97817.53;5054846;28;20178;-57
2024/01/02 04:52:40;;;;;;;3.20;2.90;;;;;;;8.35;91.57;97798.94;5054686;28;20166;-57
2024/01/02 04:55:06;;;;;;;3.53;3.22;;;;;;;8.96;91.48;97883.19;5054626;28;20186;-57
2024/01/02 04:57:31;;;;;;;3.00;2.80;;;;;;;8.87;91.60;97876.91;5054298;28;20249;-57
2024/01/02 04:59:57;;;;;;;2.72;2.53;;;;;;;8.76;92.08;97871.66;5054273;28;20632;-57
2024/01/02 05:02:25;;;;;;;3.28;2.97;;;;;;;8.75;92.30;97882.88;5054597;28;20197;-57
2024/01/02 05:04:51;;;;;;;14.55;9.00;;;;;;;8.93;94.28;97894.53;5054402;28;20201;-57
2024/01/02 05:07:16;;;;;;;16.83;11.05;;;;;;;9.01;96.85;97901.72;5054414;28;20235;-57
2024/01/02 05:09:41;;;;;;;16.23;12.23;;;;;;;8.99;98.13;97908.75;5054310;28;20184;-57
2024/01/02 05:12:07;;;;;;;16.30;12.90;;;;;;;8.98;98.72;97907.09;5054304;28;20260;-57
2024/01/02 05:14:32;;;;;;;20.17;14.88;;;;;;;8.48;99.41;97817.78;5054542;28;20562;-57
2024/01/02 05:16:58;;;;;;;25.40;14.55;;;;;;;8.75;99.30;97854.53;5054234;28;20182;-57
2024/01/02 05:19:23;;;;;;;21.95;16.50;;;;;;;9.10;100.00;97904.47;5053829;28;20663;-57
2024/01/02 05:21:51;;;;;;;25.92;17.08;;;;;;;8.85;100.00;97865.84;5054190;28;20221;-57
2024/01/02 05:24:16;;;;;;;24.33;18.25;;;;;;;8.53;100.00;97810.56;5054051;28;20296;-57
2024/01/02 05:26:41;;;;;;;24.23;16.73;;;;;;;8.85;100.00;97860.69;5054087;28;20261;-57
2024/01/02 05:29:07;;;;;;;24.05;15.70;;;;;;;8.95;100.00;97876.34;5054008;28;20292;-57
2024/01/02 05:31:32;;;;;;;21.05;15.32;;;;;;;8.99;100.00;97876.03;5053948;28;20541;-57
2024/01/02 05:33:58;;;;;;;25.48;15.35;;;;;;;8.85;100.00;97850.38;5053881;28;20201;-57
2024/01/02 05:36:23;;;;;;;27.77;18.25;;;;;;;8.99;100.00;97880.38;5052465;28;20679;-57
2024/01/02 05:38:48;;;;;;;21.88;14.63;;;;;;;8.50;100.00;97797.88;5053521;28;20173;-57
2024/01/02 05:41:14;;;;;;;20.55;12.88;;;;;;;8.98;100.00;97882.09;5053781;28;20284;-57
2024/01/02 05:43:39;;;;;;;13.32;9.07;;;;;;;9.12;99.64;97889.72;5053364;28;20201;-57
2024/01/02 05:46:04;;;;;;;8.82;7.25;;;;;;;9.02;98.64;97886.13;5053357;28;20174;-57
2024/01/02 05:48:30;;;;;;;8.35;5.90;;;;;;;8.44;97.20;97793.13;5053939;28;20196;-57
2024/01/02 05:50:55;;;;;;;7.28;5.82;;;;;;;8.50;97.82;97810.75;5053601;28;20209;-57
2024/01/02 05:53:21;;;;;;;10.68;7.40;;;;;;;9.14;98.17;97929.13;5053448;28;20170;-57
2024/01/02 05:55:46;;;;;;;12.60;10.35;;;;;;;8.59;98.64;97838.50;5053519;28;20264;-57
2024/01/02 05:58:11;;;;;;;14.30;10.88;;;;;;;8.78;98.87;97872.38;5053454;28;20648;-57
2024/01/02 06:00:37;;;;;;;21.63;14.05;;;;;;;9.14;98.94;97939.44;5053425;28;20181;-57
2024/01/02 06:03:02;;;;;;;15.88;12.20;;;;;;;8.88;99.25;97894.03;5053375;28;20178;-57
2024/01/02 06:05:28;;;;;;;20.05;12.77;;;;;;;9.11;99.49;97939.69;5053143;28;20209;-57
2024/01/02 06:07:53;;;;;;;20.23;13.30;;;;;;;8.78;99.49;97885.28;5052894;28;20711;-58
2024/01/02 06:10:19;;;;;;;15.63;11.25;;;;;;;8.98;100.00;97932.91;5053065;28;20174;-57
2024/01/02 06:12:44;;;;;;;15.55;10.82;;;;;;;8.95;100.00;97927.94;5052900;28;20644;-57
2024/01/02 06:15:13;;;;;;;14.60;9.68;;;;;;;8.47;100.00;97848.81;5053134;28;20186;-57
2024/01/02 06:17:39;;;;;;;11.07;9.20;;;;;;;8.92;100.00;97928.16;5070456;28;20181;-56
2024/01/02 06:20:04;;;;;;;9.80;7.97;;;;;;;9.01;100.00;97949.00;5070668;28;20212;-56
2024/01/02 06:22:30;;;;;;;10.95;8.63;;;;;;;9.03;100.00;97962.59;5070591;28;20177;-56
2024/01/02 06:24:56;;;;;;;30.27;17.30;;;;;;;8.56;100.00;97868.81;5070385;28;20598;-56
2024/01/02 06:27:21;;;;;;;23.70;14.18;;;;;;;8.91;100.00;97922.16;5070367;28;20177;-56
2024/01/02 06:29:46;;;;;;;19.77;12.02;;;;;;;9.15;99.80;97961.75;5070371;28;20242;-57
2024/01/02 06:32:12;;;;;;;13.80;9.25;;;;;;;9.06;99.57;97946.91;5070325;28;20632;-57
2024/01/02 06:34:37;;;;;;;16.23;10.77;;;;;;;8.94;99.57;97929.72;5070247;28;20307;-56
2024/01/02 06:37:03;;;;;;;11.68;8.00;;;;;;;9.16;99.70;97963.41;5070249;28;20187;-57
2024/01/02 06:39:29;;;;;;;9.93;7.90;;;;;;;8.88;99.88;97918.97;5070255;28;20255;-56
2024/01/02 06:41:55;;;;;;;8.77;6.38;;;;;;;8.94;99.87;97921.97;5070161;28;20212;-57
2024/01/02 06:44:21;;;;;;;10.23;7.35;;;;;;;9.10;100.00;97953.50;5069997;28;20707;-57
2024/01/02 06:46:46;;;;;;;8.95;7.28;;;;;;;9.08;100.00;97955.38;5069494;28;20188;-57
2024/01/02 06:49:12;;;;;;;10.18;7.22;;;;;;;8.90;100.00;97930.84;5070001;28;20276;-56
2024/01/02 06:51:37;;;;;;;8.50;7.32;;;;;;;9.14;100.00;97969.63;5070033;28;20169;-57
2024/01/02 06:54:03;;;;;;;12.82;7.95;;;;;;;8.70;100.00;97892.72;5068558;28;20189;-56
2024/01/02 06:56:28;;;;;;;22.17;12.70;;;;;;;8.84;100.00;97904.63;5052377;28;20173;-57
2024/01/02 06:58:54;;;;;;;34.65;16.25;;;;;;;9.27;100.00;97983.31;5052319;28;20173;-56
2024/01/02 07:01:19;;;;;;;34.97;16.40;;;;;;;8.98;100.00;97931.13;5052486;28;20186;-57
2024/01/02 07:03:45;;;;;;;35.13;20.33;;;;;;;9.28;100.00;97977.22;5052146;28;20231;-56
2024/01/02 07:06:10;;;;;;;37.67;24.02;;;;;;;8.80;100.00;97885.97;5052205;28;20177;-56
2024/01/02 07:08:36;;;;;;;42.78;26.02;;;;;;;9.34;100.00;97967.28;5052119;28;20316;-57
2024/01/02 07:11:01;;;;;;;48.38;26.20;;;;;;;8.81;100.00;97864.44;5052168;28;20383;-57
2024/01/02 07:13:27;;;;;;;46.95;24.92;;;;;;;8.84;100.00;97869.38;5051951;28;20177;-57
2024/01/02 07:15:52;;;;;;;38.63;24.27;;;;;;;9.06;100.00;97895.31;5052021;28;20262;-56
2024/01/02 07:18:17;;;;;;;48.95;29.60;;;;;;;9.00;100.00;97879.44;5051992;28;20174;-56
2024/01/02 07:20:43;;;;;;;45.65;26.77;;;;;;;9.08;100.00;97890.03;5049485;28;20796;-57
2024/01/02 07:23:08;;;;;;;35.65;22.60;;;;;;;9.14;100.00;97887.84;5042863;28;20201;-57
2024/01/02 07:25:35;;;;;;;15.68;11.30;;;;;;;9.04;100.00;97879.09;5051181;28;20225;-56
2024/01/02 07:28:00;;;;;;;22.63;13.50;;;;;;;9.16;100.00;97904.06;5051556;28;20190;-57
2024/01/02 07:30:26;;;;;;;38.40;18.48;;;;;;;9.27;100.00;97908.44;5051549;28;20178;-57
2024/01/02 07:32:51;;;;;;;40.88;23.10;;;;;;;9.12;100.00;97879.41;5051241;28;20569;-56
2024/01/02 07:35:16;;;;;;;49.38;24.65;;;;;;;9.07;100.00;97865.16;5051508;28;20191;-57
2024/01/02 07:37:42;;;;;;;41.75;23.48;;;;;;;9.36;100.00;97929.25;5051466;28;20640;-57
2024/01/02 07:40:08;;;;;;;47.58;25.25;;;;;;;8.91;100.00;97842.19;5051408;28;20178;-58
2024/01/02 07:42:33;;;;;;;38.22;23.60;;;;;;;9.38;100.00;97916.25;5051326;28;20208;-58
2024/01/02 07:44:59;;;;;;;19.63;10.88;;;;;;;8.89;100.00;97833.75;5051331;28;20617;-58
2024/01/02 07:47:25;;;;;;;9.90;6.00;;;;;;;9.46;99.62;97913.94;5051371;28;20170;-58
2024/01/02 07:49:51;;;;;;;5.38;4.82;;;;;;;9.52;99.64;97925.47;5051328;28;20197;-58
2024/01/02 07:52:16;;;;;;;8.93;6.13;;;;;;;9.35;99.53;97898.38;5051285;28;20640;-58
2024/01/02 07:54:42;;;;;;;32.85;18.17;;;;;;;9.45;100.00;97923.47;5051207;28;20721;-58
2024/01/02 07:57:07;;;;;;;36.33;24.25;;;;;;;9.74;100.00;97982.41;5051038;28;20178;-58
2024/01/02 07:59:33;;;;;;;45.33;26.20;;;;;;;9.54;100.00;97943.44;5050038;28;20177;-58
2024/01/02 08:01:58;;;;;;;43.35;27.65;;;;;;;9.34;100.00;97927.72;5051182;28;20257;-58
2024/01/02 08:04:24;;;;;;;49.97;31.45;;;;;;;9.19;100.00;97914.16;5050874;28;20206;-57
2024/01/02 08:06:50;;;;;;;46.80;32.28;;;;;;;9.60;100.00;97993.84;5050799;28;20264;-58
2024/01/02 08:09:15;;;;;;;44.72;27.73;;;;;;;9.05;100.00;97905.72;5051185;28;20223;-58
2024/01/02 08:11:40;;;;;;;37.88;24.08;;;;;;;8.98;100.00;97915.66;5051106;28;20181;-58
2024/01/02 08:14:06;;;;;;;36.83;25.63;;;;;;;8.91;100.00;97901.53;5050724;28;20374;-58
2024/01/02 08:16:32;;;;;;;38.88;26.00;;;;;;;9.44;100.00;97994.09;5051013;28;20632;-57
2024/01/02 08:18:58;;;;;;;42.85;27.35;;;;;;;9.26;100.00;97979.88;5051005;28;20672;-57
2024/01/02 08:21:23;;;;;;;46.50;28.83;;;;;;;9.33;100.00;97983.69;5050632;28;20356;-57
2024/01/02 08:23:49;;;;;;;56.30;30.45;;;;;;;9.00;100.00;97913.81;5050727;28;20235;-57
2024/01/02 08:26:14;;;;;;;45.00;27.10;;;;;;;9.62;100.00;98016.03;5050751;28;20253;-58
2024/01/02 08:28:40;;;;;;;41.85;27.40;;;;;;;9.42;100.00;97964.13;5050595;28;20601;-58
2024/01/02 08:31:05;;;;;;;42.80;29.63;;;;;;;9.45;100.00;97964.78;5050913;28;20189;-57
2024/01/02 08:33:31;;;;;;;50.38;31.27;;;;;;;9.84;100.00;98019.56;5050823;28;20197;-58
2024/01/02 08:35:57;;;;;;;51.85;32.70;;;;;;;9.60;100.00;97973.19;5049572;28;20192;-58
2024/01/02 08:38:22;;;;;;;51.67;34.08;;;;;;;9.65;100.00;97979.66;5050838;28;20178;-57
2024/01/02 08:40:48;;;;;;;58.67;35.30;;;;;;;9.94;100.00;98025.75;5050784;28;20188;-57
2024/01/02 08:43:13;;;;;;;58.55;34.47;;;;;;;9.79;100.00;98000.16;5050884;28;20273;-57
2024/01/02 08:45:39;;;;;;;59.47;36.30;;;;;;;9.68;100.00;97979.44;5050402;28;20205;-57
2024/01/02 08:48:04;;;;;;;56.42;36.85;;;;;;;10.06;100.00;98026.63;5050790;28;20540;-57
2024/01/02 08:50:30;;;;;;;56.80;34.25;;;;;;;9.60;100.00;97948.16;5050496;28;20675;-57
2024/01/02 08:52:55;;;;;;;48.70;32.90;;;;;;;9.08;100.00;97862.47;5050756;28;20606;-57
2024/01/02 08:55:21;;;;;;;52.83;33.50;;;;;;;9.71;100.00;97950.81;5067976;28;20193;-57
2024/01/02 08:57:46;;;;;;;50.33;32.15;;;;;;;10.27;100.00;98027.66;5067732;28;20195;-58
2024/01/02 09:00:14;;;;;;;50.80;31.65;;;;;;;9.81;100.00;97938.88;5068157;28;20616;-57
2024/01/02 09:02:41;;;;;;;52.10;32.53;;;;;;;10.12;100.00;97995.16;5068140;28;20182;-57
2024/01/02 09:05:07;;;;;;;47.88;31.83;;;;;;;10.37;100.00;98033.78;5068019;28;20629;-57
2024/01/02 09:07:34;;;;;;;52.58;32.72;;;;;;;10.30;100.00;98024.84;5047853;28;20181;-57
2024/01/02 09:09:59;;;;;;;51.63;34.25;;;;;;;9.78;100.00;97959.75;5048877;28;20182;-57
2024/01/02 09:12:24;;;;;;;52.60;35.97;;;;;;;9.75;100.00;97957.41;5051681;28;20190;-57
2024/01/02 09:14:50;;;;;;;51.53;34.42;;;;;;;10.01;100.00;97974.41;5051616;28;20310;-57
2024/01/02 09:17:15;;;;;;;68.72;36.72;;;;;;;9.90;100.00;97940.78;5051548;28;20549;-57
2024/01/02 09:19:40;;;;;;;66.22;38.38;;;;;;;10.21;100.00;97986.75;5051316;28;20193;-57
2024/01/02 09:22:06;;;;;;;56.28;35.83;;;;;;;10.22;100.00;97981.44;5051299;28;20578;-57
2024/01/02 09:24:31;;;;;;;60.13;36.10;;;;;;;10.11;100.00;97965.91;5051317;28;20218;-57
2024/01/02 09:26:59;;;;;;;52.03;31.98;;;;;;;10.56;100.00;98028.94;5036306;28;20189;-57
2024/01/02 09:29:25;;;;;;;49.40;30.48;;;;;;;10.56;100.00;98028.94;5031332;28;20708;-57
2024/01/02 09:31:51;;;;;;;45.50;28.80;;;;;;;10.57;100.00;98017.63;5031118;28;20192;-57
2024/01/02 09:34:17;;;;;;;46.45;27.30;;;;;;;10.39;99.20;97980.22;5030877;28;20237;-57
2024/01/02 09:36:42;;;;;;;42.13;25.75;;;;;;;10.44;98.60;97988.47;5031094;28;20175;-57
2024/01/02 09:39:08;;;;;;;35.97;22.73;;;;;;;10.58;98.27;98007.19;5046088;28;20695;-57
2024/01/02 09:41:46;;;;;;;36.38;22.83;;;;;;;10.52;98.31;97986.91;5051102;28;20224;-57
2024/01/02 09:44:53;;;;;;;32.88;21.50;;;;;;;10.73;99.23;98031.88;5030929;28;20222;-57
2024/01/02 09:47:56;;;;;;;36.63;24.23;;;;;;;10.72;100.00;98030.25;5028217;28;20198;-57
2024/01/02 09:50:24;;;;;;;44.45;26.92;;;;;;;10.64;100.00;98022.25;5031309;28;20214;-57
2024/01/02 09:53:14;;;;;;;40.42;26.73;;;;;;;10.77;100.00;98024.72;5029520;28;20268;-57
2024/01/02 09:55:46;;;;;;;42.92;25.77;;;;;;;10.74;100.00;98030.13;4993877;28;20199;-57
2024/01/02 09:58:38;;;;;;;36.90;25.48;;;;;;;10.69;100.00;98027.88;4990978;28;20190;-57
2024/01/02 10:01:16;;;;;;;39.72;27.73;;;;;;;10.62;100.00;98023.28;5002531;28;20617;-57
2024/01/02 10:04:00;;;;;;;38.72;27.45;;;;;;;10.14;100.00;97964.84;4991302;28;20195;-57
2024/01/02 10:06:59;;;;;;;39.60;27.42;;;;;;;10.29;100.00;98023.19;4991414;28;20741;-57
2024/01/02 10:09:38;;;;;;;49.65;30.02;;;;;;;10.26;100.00;98041.50;4991279;28;20184;-57
2024/01/02 10:12:18;;;;;;;39.08;27.60;;;;;;;10.35;100.00;98035.66;4991403;28;20180;-57
2024/01/02 10:15:19;;;;;;;40.63;28.83;;;;;;;9.82;100.00;97932.78;4991316;28;20191;-57
2024/01/02 10:18:25;;;;;;;44.88;27.65;;;;;;;9.66;100.00;97932.22;4993559;28;20187;-57
2024/01/02 10:21:15;;;;;;;45.63;28.95;;;;;;;10.19;100.00;98025.63;5010872;28;20304;-57
2024/01/02 10:23:59;;;;;;;39.75;28.45;;;;;;;10.21;100.00;98030.69;5010482;28;20698;-57
2024/01/02 10:26:27;;;;;;;42.42;28.88;;;;;;;10.23;100.00;98026.22;5016476;28;20213;-57
2024/01/02 10:29:01;;;;;;;40.22;28.73;;;;;;;10.18;100.00;98020.56;5032537;28;20190;-57
2024/01/02 10:31:56;;;;;;;45.88;30.92;;;;;;;10.19;100.00;98019.63;5032891;28;20207;-57
2024/01/02 10:34:32;;;;;;;61.20;33.17;;;;;;;10.18;100.00;98023.16;5032811;28;20185;-57
2024/01/02 10:37:04;;;;;;;43.63;29.73;;;;;;;9.67;100.00;97938.22;5032998;28;20182;-57
2024/01/02 10:39:56;;;;;;;44.33;30.17;;;;;;;9.84;100.00;97948.97;5033042;28;20182;-57
2024/01/02 10:42:50;;;;;;;45.35;30.50;;;;;;;10.04;100.00;97963.91;5032614;28;20179;-57
2024/01/02 10:45:30;;;;;;;59.08;35.83;;;;;;;10.05;100.00;97970.72;5032494;28;20233;-57
2024/01/02 10:48:13;;;;;;;63.80;38.50;;;;;;;10.30;100.00;98017.91;5032524;28;20193;-57
2024/01/02 10:51:05;;;;;;;59.50;37.47;;;;;;;10.39;100.00;98011.25;5032474;28;20178;-57
2024/01/02 10:53:37;;;;;;;63.47;39.05;;;;;;;10.22;100.00;97967.72;5029781;28;20223;-57
2024/01/02 10:56:13;;;;;;;59.28;36.25;;;;;;;10.07;100.00;97932.63;5029897;28;20324;-57
2024/01/02 10:58:57;;;;;;;46.47;32.00;;;;;;;10.32;100.00;97976.41;5029832;28;20269;-57
2024/01/02 11:01:25;;;;;;;51.35;33.83;;;;;;;10.05;100.00;97942.28;5029716;28;20248;-57
2024/01/02 11:04:01;;;;;;;46.58;29.48;;;;;;;10.57;100.00;98000.34;5029607;28;20214;-57
2024/01/02 11:06:43;;;;;;;46.08;31.33;;;;;;;10.55;100.00;97996.22;5032347;28;20289;-58
2024/01/02 11:09:21;;;;;;;42.92;31.10;;;;;;;10.02;100.00;97909.69;5037504;28;20178;-57
2024/01/02 11:11:50;;;;;;;45.75;32.00;;;;;;;10.67;100.00;98001.28;5029574;28;20194;-58
2024/01/02 11:14:19;;;;;;;42.60;29.88;;;;;;;10.81;100.00;97992.50;5029493;28;20186;-57
2024/01/02 11:16:46;;;;;;;42.15;29.27;;;;;;;10.82;100.00;97991.56;5029416;28;20195;-58
2024/01/02 11:19:15;;;;;;;37.55;27.48;;;;;;;10.43;100.00;97919.53;5029519;28;20229;-58
2024/01/02 11:21:45;;;;;;;38.97;26.35;;;;;;;10.55;100.00;97913.44;5029548;28;20202;-58
2024/01/02 11:24:14;;;;;;;44.00;27.73;;;;;;;10.60;100.00;97908.75;5029269;28;20301;-56
2024/01/02 11:26:41;;;;;;;73.47;43.55;;;;;;;11.32;100.00;97998.84;4970419;28;20741;-56